Airport View

Enter AWOS ICAO identifier for current METAR.

ex. KFNL

KFLL 120953Z 00000KT 10SM FEW033 SCT048 BKN060 22/19 A2994 RMK AO2 SLP138 T02220189

12 Nov 2019 10:38

Phone: 954-359-7857

Other Area AWOS: KHWO - KFXE - KPMP - KOPF

TAF AMD KFLL 120934Z 1210/1312 VRB05KT P6SM FEW035 SCT250 FM121500 16007KT P6SM SCT035 SCT250 FM122200 21005KT P6SM FEW050 SCT110 FM130200 VRB04KT P6SM FEW100